createdAt,value
2022-09-28T00:00:10.767Z,10.55
2022-09-28T00:01:10.646Z,10.58
2022-09-28T00:02:11.878Z,10.62
2022-09-28T00:03:10.662Z,10.66
2022-09-28T00:04:10.738Z,10.71
2022-09-28T00:05:10.607Z,10.74
2022-09-28T00:06:10.777Z,10.78
2022-09-28T00:07:10.564Z,10.82
2022-09-28T00:08:10.616Z,10.86
2022-09-28T00:09:10.537Z,10.89
2022-09-28T00:10:10.647Z,10.90
2022-09-28T00:11:10.536Z,10.92
2022-09-28T00:12:12.687Z,10.94
2022-09-28T00:13:10.477Z,10.95
2022-09-28T00:14:12.608Z,10.97
2022-09-28T00:15:10.456Z,11.00
2022-09-28T00:16:10.753Z,11.03
2022-09-28T00:17:10.447Z,11.04
2022-09-28T00:18:10.485Z,11.05
2022-09-28T00:19:10.406Z,11.06
2022-09-28T00:20:10.518Z,11.06
2022-09-28T00:21:10.388Z,11.07
2022-09-28T00:22:10.457Z,11.09
2022-09-28T00:23:10.368Z,11.09
2022-09-28T00:24:10.497Z,11.08
2022-09-28T00:25:10.329Z,11.07
2022-09-28T00:26:10.428Z,11.04
2022-09-28T00:27:10.287Z,11.03
2022-09-28T00:28:10.365Z,11.02
2022-09-28T00:29:10.386Z,11.01
2022-09-28T00:30:10.397Z,11.01
2022-09-28T00:31:10.269Z,11.02
2022-09-28T00:32:10.349Z,11.02
2022-09-28T00:33:10.219Z,11.01
2022-09-28T00:34:10.375Z,10.99
2022-09-28T00:35:10.207Z,10.94
2022-09-28T00:36:33.400Z,10.84
2022-09-28T00:37:10.164Z,10.73
2022-09-28T00:38:10.238Z,10.60
2022-09-28T00:39:10.189Z,10.48
2022-09-28T00:40:10.276Z,10.36
2022-09-28T00:41:10.134Z,10.23
2022-09-28T00:42:10.210Z,10.12
2022-09-28T00:43:10.097Z,10.01
2022-09-28T00:44:10.249Z,9.91
2022-09-28T00:45:10.064Z,9.82
2022-09-28T00:46:10.152Z,9.74
2022-09-28T00:47:10.047Z,9.66
2022-09-28T00:49:19.604Z,8.74
2022-09-28T00:50:19.385Z,8.75
2022-09-28T00:51:19.425Z,8.97
2022-09-28T00:52:19.375Z,9.06
2022-09-28T00:53:19.463Z,9.09
2022-09-28T00:54:19.334Z,9.07
2022-09-28T00:55:19.394Z,9.03
2022-09-28T00:56:19.304Z,8.98
2022-09-28T00:57:19.443Z,8.92
2022-09-28T00:58:19.295Z,8.85
2022-09-28T00:59:19.475Z,8.79
2022-09-28T01:00:19.244Z,8.73
2022-09-28T01:01:19.369Z,8.67
2022-09-28T01:02:19.278Z,8.62
2022-09-28T01:03:20.372Z,8.55
2022-09-28T01:04:19.223Z,8.50
2022-09-28T01:06:28.505Z,7.80
2022-09-28T01:07:28.454Z,7.80
2022-09-28T01:08:28.595Z,8.03
2022-09-28T01:09:28.445Z,8.14
2022-09-28T01:11:37.819Z,7.60
2022-09-28T01:12:37.702Z,7.61
2022-09-28T01:13:37.841Z,7.84
2022-09-28T01:14:37.694Z,7.97
2022-09-28T01:15:38.802Z,8.03
2022-09-28T01:16:37.673Z,8.08
2022-09-28T01:17:37.821Z,8.15
2022-09-28T01:18:37.622Z,8.22
2022-09-28T01:19:37.652Z,8.25
2022-09-28T01:20:37.622Z,8.27
2022-09-28T01:21:58.659Z,8.29
2022-09-28T01:22:37.575Z,8.37
2022-09-28T01:23:37.722Z,8.48
2022-09-28T01:24:37.542Z,8.61
2022-09-28T01:25:37.682Z,8.71
2022-09-28T01:26:37.533Z,8.81
2022-09-28T01:28:00.662Z,8.93
2022-09-28T01:28:37.491Z,9.04
2022-09-28T01:29:37.482Z,9.15
2022-09-28T01:30:37.600Z,9.26
2022-09-28T01:31:37.491Z,9.35
2022-09-28T01:32:37.682Z,9.43
2022-09-28T01:33:37.431Z,9.49
2022-09-28T01:34:37.464Z,9.54
2022-09-28T01:35:37.394Z,9.57
2022-09-28T01:36:37.493Z,9.58
2022-09-28T01:37:37.373Z,9.60
2022-09-28T01:38:40.761Z,9.64
2022-09-28T01:39:37.341Z,9.67
2022-09-28T01:40:37.531Z,9.70
2022-09-28T01:41:37.311Z,9.71
2022-09-28T01:42:37.402Z,9.69
2022-09-28T01:43:37.292Z,9.66
2022-09-28T01:44:37.396Z,9.63
2022-09-28T01:45:37.292Z,9.60
2022-09-28T01:46:37.371Z,9.55
2022-09-28T01:47:37.242Z,9.52
2022-09-28T01:48:37.411Z,9.50
2022-09-28T01:49:37.211Z,9.51
2022-09-28T01:50:39.451Z,9.52
2022-09-28T01:51:37.191Z,9.53
2022-09-28T01:52:37.285Z,9.51
2022-09-28T01:53:37.162Z,9.49
2022-09-28T01:54:37.211Z,9.48
2022-09-28T01:55:37.131Z,9.45
2022-09-28T01:56:38.222Z,9.40
2022-09-28T01:57:37.109Z,9.34
2022-09-28T01:58:37.289Z,9.23
2022-09-28T01:59:37.083Z,9.10
2022-09-28T02:00:37.296Z,9.00
2022-09-28T02:01:37.051Z,8.92
2022-09-28T02:02:37.211Z,8.85
2022-09-28T02:03:37.040Z,8.81
2022-09-28T02:04:39.181Z,8.78
2022-09-28T02:05:37.000Z,8.74
2022-09-28T02:06:37.131Z,8.72
2022-09-28T02:07:36.971Z,8.75
2022-09-28T02:08:37.111Z,8.78
2022-09-28T02:09:36.950Z,8.77
2022-09-28T02:10:37.004Z,8.76
2022-09-28T02:11:36.920Z,8.76
2022-09-28T02:12:37.085Z,8.78
2022-09-28T02:13:36.915Z,8.81
2022-09-28T02:14:37.018Z,8.86
2022-09-28T02:15:36.871Z,8.91
2022-09-28T02:16:37.080Z,8.95
2022-09-28T02:17:36.837Z,8.96
2022-09-28T02:18:37.041Z,8.98
2022-09-28T02:19:36.820Z,9.01
2022-09-28T02:20:36.920Z,9.04
2022-09-28T02:21:36.781Z,9.07
2022-09-28T02:22:36.910Z,9.10
2022-09-28T02:23:36.770Z,9.14
2022-09-28T02:24:36.861Z,9.19
2022-09-28T02:25:36.740Z,9.25
2022-09-28T02:26:36.930Z,9.30
2022-09-28T02:27:36.721Z,9.35
2022-09-28T02:28:36.912Z,9.41
2022-09-28T02:29:36.680Z,9.44
2022-09-28T02:30:36.753Z,9.43
2022-09-28T02:31:36.821Z,9.42
2022-09-28T02:32:36.740Z,9.42
2022-09-28T02:33:36.632Z,9.41
2022-09-28T02:34:36.722Z,9.40
2022-09-28T02:35:36.600Z,9.42
2022-09-28T02:36:38.750Z,9.44
2022-09-28T02:37:36.571Z,9.48
2022-09-28T02:38:36.641Z,9.50
2022-09-28T02:39:36.580Z,9.53
2022-09-28T02:40:37.679Z,9.55
2022-09-28T02:41:36.527Z,9.59
2022-09-28T02:42:36.661Z,9.63
2022-09-28T02:43:36.483Z,9.67
2022-09-28T02:44:36.651Z,9.70
2022-09-28T02:45:36.510Z,9.69
2022-09-28T02:46:36.640Z,9.69
2022-09-28T02:47:36.442Z,9.68
2022-09-28T02:48:43.598Z,9.64
2022-09-28T02:49:37.429Z,9.56
2022-09-28T02:50:37.530Z,9.47
2022-09-28T02:51:36.381Z,9.39
2022-09-28T02:52:36.543Z,9.32
2022-09-28T02:53:36.364Z,9.25
2022-09-28T02:54:36.483Z,9.18
2022-09-28T02:55:36.406Z,9.12
2022-09-28T02:56:36.410Z,9.05
2022-09-28T02:57:36.300Z,8.99
2022-09-28T02:58:36.352Z,8.95
2022-09-28T02:59:36.279Z,8.92
2022-09-28T03:00:36.435Z,8.89
2022-09-28T03:01:36.290Z,8.85
2022-09-28T03:02:36.418Z,8.84
2022-09-28T03:03:36.240Z,8.83
2022-09-28T03:04:36.349Z,8.82
2022-09-28T03:05:36.207Z,8.80
2022-09-28T03:07:05.089Z,8.80
2022-09-28T03:07:36.174Z,8.81
2022-09-28T03:08:36.219Z,8.79
2022-09-28T03:09:36.150Z,8.77
2022-09-28T03:10:36.259Z,8.75
2022-09-28T03:11:36.130Z,8.72
2022-09-28T03:12:36.229Z,8.71
2022-09-28T03:13:36.091Z,8.71
2022-09-28T03:14:36.229Z,8.69
2022-09-28T03:15:36.069Z,8.70
2022-09-28T03:16:36.272Z,8.71
2022-09-28T03:17:36.047Z,8.71
2022-09-28T03:18:36.156Z,8.69
2022-09-28T03:19:36.019Z,8.71
2022-09-28T03:20:36.136Z,8.73
2022-09-28T03:21:35.980Z,8.74
2022-09-28T03:22:36.168Z,8.71
2022-09-28T03:23:35.967Z,8.69
2022-09-28T03:24:36.051Z,8.67
2022-09-28T03:25:35.939Z,8.65
2022-09-28T03:26:36.039Z,8.64
2022-09-28T03:27:35.909Z,8.65
2022-09-28T03:28:35.977Z,8.67
2022-09-28T03:29:35.892Z,8.70
2022-09-28T03:30:36.058Z,8.72
2022-09-28T03:31:35.893Z,8.74
2022-09-28T03:32:36.049Z,8.73
2022-09-28T03:33:35.828Z,8.71
2022-09-28T03:34:36.998Z,8.68
2022-09-28T03:35:35.811Z,8.64
2022-09-28T03:36:36.889Z,8.61
2022-09-28T03:37:35.784Z,8.59
2022-09-28T03:38:35.848Z,8.57
2022-09-28T03:39:35.749Z,8.57
2022-09-28T03:40:35.918Z,8.57
2022-09-28T03:41:35.728Z,8.57
2022-09-28T03:42:35.768Z,8.57
2022-09-28T03:43:35.697Z,8.55
2022-09-28T03:44:35.750Z,8.53
2022-09-28T03:45:35.703Z,8.53
2022-09-28T03:46:35.789Z,8.54
2022-09-28T03:47:35.648Z,8.54
2022-09-28T03:48:35.777Z,8.52
2022-09-28T03:49:35.618Z,8.51
2022-09-28T03:50:35.766Z,8.49
2022-09-28T03:51:35.598Z,8.46
2022-09-28T03:52:35.699Z,8.45
2022-09-28T03:53:35.569Z,8.44
2022-09-28T03:54:35.687Z,8.42
2022-09-28T03:55:35.549Z,8.40
2022-09-28T03:56:35.666Z,8.40
2022-09-28T03:57:35.516Z,8.39
2022-09-28T03:58:36.630Z,8.40
2022-09-28T03:59:35.487Z,8.42
2022-09-28T04:00:35.758Z,8.43
2022-09-28T04:01:35.509Z,8.45
2022-09-28T04:02:35.698Z,8.46
2022-09-28T04:03:35.437Z,8.46
2022-09-28T04:04:35.609Z,8.45
2022-09-28T04:05:35.409Z,8.45
2022-09-28T04:06:35.597Z,8.43
2022-09-28T04:07:35.379Z,8.42
2022-09-28T04:08:35.485Z,8.40
2022-09-28T04:09:35.357Z,8.39
2022-09-28T04:10:35.408Z,8.39
2022-09-28T04:11:59.483Z,8.38
2022-09-28T04:12:36.349Z,8.37
2022-09-28T04:13:35.416Z,8.38
2022-09-28T04:14:35.287Z,8.40
2022-09-28T04:15:56.440Z,8.42
2022-09-28T04:16:35.324Z,8.44
2022-09-28T04:17:39.785Z,8.46
2022-09-28T04:18:35.297Z,8.48
2022-09-28T04:19:35.317Z,8.49
2022-09-28T04:20:35.208Z,8.48
2022-09-28T04:21:36.387Z,8.46
2022-09-28T04:22:35.186Z,8.46
2022-09-28T04:23:35.288Z,8.47
2022-09-28T04:24:35.188Z,8.46
2022-09-28T04:25:35.227Z,8.45
2022-09-28T04:26:35.128Z,8.43
2022-09-28T04:27:35.318Z,8.41
2022-09-28T04:28:35.104Z,8.38
2022-09-28T04:29:36.217Z,8.37
2022-09-28T04:30:35.117Z,8.37
2022-09-28T04:31:35.200Z,8.36
2022-09-28T04:32:35.055Z,8.34
2022-09-28T04:33:35.087Z,8.32
2022-09-28T04:34:37.202Z,8.30
2022-09-28T04:35:35.018Z,8.28
2022-09-28T04:36:35.227Z,8.25
2022-09-28T04:37:34.998Z,8.22
2022-09-28T04:38:48.766Z,8.19
2022-09-28T04:39:35.956Z,8.16
2022-09-28T04:40:35.091Z,8.12
2022-09-28T04:41:34.937Z,8.07
2022-09-28T04:42:35.036Z,8.01
2022-09-28T04:43:34.917Z,7.94
2022-09-28T04:44:35.031Z,7.89
2022-09-28T04:45:34.924Z,7.86
2022-09-28T04:46:35.054Z,7.84
2022-09-28T04:47:34.855Z,7.82
2022-09-28T04:48:34.936Z,7.81
2022-09-28T04:49:34.826Z,7.78
2022-09-28T04:50:56.917Z,7.75
2022-09-28T04:51:34.805Z,7.71
2022-09-28T04:52:34.956Z,7.69
2022-09-28T04:53:34.775Z,7.66
2022-09-28T04:54:34.946Z,7.64
2022-09-28T04:55:34.755Z,7.61
2022-09-28T04:56:34.847Z,7.59
2022-09-28T04:57:34.726Z,7.55
2022-09-28T04:58:34.756Z,7.52
2022-09-28T04:59:34.696Z,7.50
2022-09-28T05:00:34.846Z,7.48
2022-09-28T05:01:34.900Z,7.48
2022-09-28T05:02:35.800Z,7.49
2022-09-28T05:03:34.646Z,7.49
2022-09-28T05:04:34.765Z,7.50
2022-09-28T05:05:34.615Z,7.51
2022-09-28T05:06:34.752Z,7.51
2022-09-28T05:07:34.616Z,7.51
2022-09-28T05:08:34.634Z,7.51
2022-09-28T05:09:38.247Z,7.51
2022-09-28T05:10:34.549Z,7.52
2022-09-28T05:11:34.635Z,7.54
2022-09-28T05:12:34.539Z,7.57
2022-09-28T05:13:34.572Z,7.60
2022-09-28T05:14:34.495Z,7.63
2022-09-28T05:15:34.607Z,7.64
2022-09-28T05:16:34.485Z,7.65
2022-09-28T05:17:34.646Z,7.66
2022-09-28T05:18:34.472Z,7.68
2022-09-28T05:19:34.474Z,7.70
2022-09-28T05:20:34.415Z,7.72
2022-09-28T05:21:34.515Z,7.74
2022-09-28T05:22:34.395Z,7.76
2022-09-28T05:23:35.474Z,7.78
2022-09-28T05:24:34.385Z,7.79
2022-09-28T05:25:34.485Z,7.81
2022-09-28T05:26:34.343Z,7.80
2022-09-28T05:27:34.525Z,7.80
2022-09-28T05:28:34.313Z,7.80
2022-09-28T05:29:34.362Z,7.78
2022-09-28T05:30:34.316Z,7.78
2022-09-28T05:31:34.425Z,7.78
2022-09-28T05:32:34.264Z,7.78
2022-09-28T05:33:34.444Z,7.80
2022-09-28T05:34:34.224Z,7.80
2022-09-28T05:35:34.361Z,7.81
2022-09-28T05:36:34.234Z,7.81
2022-09-28T05:38:45.691Z,7.23
2022-09-28T05:39:43.460Z,7.23
2022-09-28T05:40:43.683Z,7.46
2022-09-28T05:41:43.469Z,7.60
2022-09-28T05:42:44.573Z,7.66
2022-09-28T05:43:43.420Z,7.69
2022-09-28T05:44:43.480Z,7.70
2022-09-28T05:45:43.476Z,7.70
2022-09-28T05:46:43.519Z,7.70
2022-09-28T05:47:43.380Z,7.72
2022-09-28T05:49:05.453Z,7.73
2022-09-28T05:49:43.340Z,7.76
2022-09-28T05:50:43.489Z,7.78
2022-09-28T05:51:43.320Z,7.80
2022-09-28T05:52:43.319Z,7.82
2022-09-28T05:53:43.301Z,7.83
2022-09-28T05:54:43.357Z,7.84
2022-09-28T05:55:43.259Z,7.84
2022-09-28T05:56:43.394Z,7.84
2022-09-28T05:57:43.231Z,7.83
2022-09-28T05:58:43.329Z,7.83
2022-09-28T05:59:43.230Z,7.82
2022-09-28T06:01:06.516Z,7.81
2022-09-28T06:01:43.228Z,7.80
2022-09-28T06:02:43.226Z,7.81
2022-09-28T06:03:43.276Z,7.82
2022-09-28T06:04:43.139Z,7.84
2022-09-28T06:05:43.357Z,7.86
2022-09-28T06:06:43.112Z,7.89
2022-09-28T06:07:43.129Z,7.91
2022-09-28T06:08:43.089Z,7.92
2022-09-28T06:09:43.169Z,7.94
2022-09-28T06:10:43.058Z,7.96
2022-09-28T06:11:43.160Z,7.99
2022-09-28T06:12:43.038Z,8.00
2022-09-28T06:13:43.139Z,8.02
2022-09-28T06:14:43.008Z,8.03
2022-09-28T06:15:43.079Z,8.05
2022-09-28T06:16:43.965Z,8.07
2022-09-28T06:17:43.058Z,8.09
2022-09-28T06:18:42.957Z,8.10
2022-09-28T06:19:43.049Z,8.13
2022-09-28T06:20:42.934Z,8.17
2022-09-28T06:21:43.088Z,8.20
2022-09-28T06:22:42.900Z,8.22
2022-09-28T06:23:49.167Z,8.26
2022-09-28T06:24:42.878Z,8.30
2022-09-28T06:25:42.949Z,8.37
2022-09-28T06:26:42.848Z,8.43
2022-09-28T06:27:43.917Z,8.48
2022-09-28T06:28:42.818Z,8.54
2022-09-28T06:29:42.989Z,8.60
2022-09-28T06:30:42.859Z,8.68
2022-09-28T06:31:43.896Z,8.75
2022-09-28T06:32:42.778Z,8.82
2022-09-28T06:33:47.043Z,8.90
2022-09-28T06:34:45.349Z,8.99
2022-09-28T06:35:45.329Z,9.09
2022-09-28T06:36:43.464Z,9.19
2022-09-28T06:37:43.688Z,9.30
2022-09-28T06:38:43.625Z,9.41
2022-09-28T06:39:44.197Z,9.50
2022-09-28T06:40:43.269Z,9.58
2022-09-28T06:41:43.045Z,9.64
2022-09-28T06:42:42.837Z,9.70
2022-09-28T06:43:43.089Z,9.76
2022-09-28T06:44:43.966Z,9.79
2022-09-28T06:45:42.649Z,9.82
2022-09-28T06:46:42.779Z,9.86
2022-09-28T06:47:42.594Z,9.92
2022-09-28T06:48:44.930Z,9.99
2022-09-28T06:49:42.548Z,10.07
2022-09-28T06:50:44.645Z,10.13
2022-09-28T06:51:42.527Z,10.20
2022-09-28T06:52:42.616Z,10.25
2022-09-28T06:53:43.117Z,10.29
2022-09-28T06:54:44.261Z,10.34
2022-09-28T06:55:46.903Z,10.39
2022-09-28T06:56:42.555Z,10.43
2022-09-28T06:57:42.991Z,10.47
2022-09-28T06:58:42.438Z,10.52
2022-09-28T06:59:42.780Z,10.57
2022-09-28T07:00:43.110Z,10.61
2022-09-28T07:01:43.126Z,10.64
2022-09-28T07:02:42.725Z,10.69
2022-09-28T07:03:42.930Z,10.73
2022-09-28T07:04:42.349Z,10.75
2022-09-28T07:05:43.049Z,10.77
2022-09-28T07:06:42.574Z,10.80
2022-09-28T07:07:42.768Z,10.82
2022-09-28T07:08:42.627Z,10.84
2022-09-28T07:09:49.346Z,10.86
2022-09-28T07:10:43.627Z,10.89
2022-09-28T07:11:43.591Z,10.91
2022-09-28T07:12:42.633Z,10.95
2022-09-28T07:14:03.659Z,11.03
2022-09-28T07:14:47.728Z,11.09
2022-09-28T07:15:43.438Z,11.14
2022-09-28T07:17:07.889Z,11.18
2022-09-28T07:17:55.379Z,11.20
2022-09-28T07:18:43.157Z,11.20
2022-09-28T07:19:42.215Z,11.17
2022-09-28T07:20:52.544Z,11.12
2022-09-28T07:21:43.563Z,11.10
2022-09-28T07:22:43.866Z,11.10
2022-09-28T07:23:51.640Z,11.10
2022-09-28T07:24:43.080Z,11.09
2022-09-28T07:25:42.225Z,11.03
2022-09-28T07:26:42.047Z,10.96
2022-09-28T07:27:42.207Z,10.87
2022-09-28T07:28:42.028Z,10.79
2022-09-28T07:29:42.227Z,10.73
2022-09-28T07:30:42.484Z,10.70
2022-09-28T07:31:44.564Z,10.70
2022-09-28T07:32:42.506Z,10.67
2022-09-28T07:33:42.116Z,10.64
2022-09-28T07:34:41.937Z,10.59
2022-09-28T07:35:42.097Z,10.55
2022-09-28T07:36:41.925Z,10.48
2022-09-28T07:37:44.137Z,10.43
2022-09-28T07:38:41.887Z,10.39
2022-09-28T07:39:42.054Z,10.36
2022-09-28T07:40:45.127Z,10.31
2022-09-28T07:41:42.857Z,10.30
2022-09-28T07:43:03.986Z,10.29
2022-09-28T07:43:41.827Z,10.31
2022-09-28T07:44:41.907Z,10.33
2022-09-28T07:45:41.878Z,10.36
2022-09-28T07:46:41.949Z,10.39
2022-09-28T07:47:41.768Z,10.44
2022-09-28T07:48:41.877Z,10.48
2022-09-28T07:49:41.747Z,10.51
2022-09-28T07:50:43.908Z,10.56
2022-09-28T07:51:41.739Z,10.63
2022-09-28T07:52:42.465Z,10.67
2022-09-28T07:53:41.701Z,10.68
2022-09-28T07:54:41.787Z,10.64
2022-09-28T07:55:41.659Z,10.55
2022-09-28T07:56:42.747Z,10.47
2022-09-28T07:57:41.668Z,10.41
2022-09-28T07:58:41.757Z,10.36
2022-09-28T07:59:41.610Z,10.33
2022-09-28T08:00:43.787Z,10.35
2022-09-28T08:01:41.658Z,10.38
2022-09-28T08:02:41.702Z,10.41
2022-09-28T08:03:41.577Z,10.44
2022-09-28T08:04:41.667Z,10.46
2022-09-28T08:05:41.537Z,10.49
2022-09-28T08:06:41.722Z,10.53
2022-09-28T08:07:41.505Z,10.57
2022-09-28T08:09:05.845Z,10.60
2022-09-28T08:09:41.477Z,10.64
2022-09-28T08:10:44.522Z,10.67
2022-09-28T08:11:43.221Z,10.70
2022-09-28T08:12:42.093Z,10.74
2022-09-28T08:13:41.956Z,10.79
2022-09-28T08:14:42.212Z,10.84
2022-09-28T08:15:41.987Z,10.89
2022-09-28T08:16:41.583Z,10.92
2022-09-28T08:17:41.376Z,10.95
2022-09-28T08:18:41.637Z,10.99
2022-09-28T08:19:41.345Z,11.04
2022-09-28T08:20:41.399Z,11.11
2022-09-28T08:21:41.358Z,11.18
2022-09-28T08:22:41.952Z,11.25
2022-09-28T08:23:41.296Z,11.34
2022-09-28T08:24:41.427Z,11.41
2022-09-28T08:25:41.267Z,11.48
2022-09-28T08:26:41.427Z,11.55
2022-09-28T08:27:41.239Z,11.61
2022-09-28T08:28:42.612Z,11.68
2022-09-28T08:29:41.964Z,11.75
2022-09-28T08:30:41.385Z,11.81
2022-09-28T08:31:41.189Z,11.88
2022-09-28T08:32:41.328Z,11.99
2022-09-28T08:33:41.160Z,12.16
2022-09-28T08:34:42.336Z,12.39
2022-09-28T08:35:41.136Z,12.58
2022-09-28T08:36:43.338Z,12.72
2022-09-28T08:37:41.107Z,12.80
2022-09-28T08:38:41.226Z,12.85
2022-09-28T08:39:41.086Z,12.87
2022-09-28T08:40:43.260Z,12.87
2022-09-28T08:41:41.116Z,12.86
2022-09-28T08:42:41.148Z,12.85
2022-09-28T08:43:41.026Z,12.85
2022-09-28T08:44:41.237Z,12.87
2022-09-28T08:45:41.041Z,12.85
2022-09-28T08:46:41.117Z,12.83
2022-09-28T08:47:40.976Z,12.82
2022-09-28T08:48:41.056Z,12.82
2022-09-28T08:49:40.956Z,12.80
2022-09-28T08:50:41.027Z,12.81
2022-09-28T08:51:40.930Z,12.81
2022-09-28T08:52:41.172Z,12.83
2022-09-28T08:53:40.911Z,12.85
2022-09-28T08:54:41.068Z,12.93
2022-09-28T08:55:40.877Z,13.03
2022-09-28T08:56:40.986Z,13.19
2022-09-28T08:57:40.846Z,13.34
2022-09-28T08:58:40.929Z,13.40
2022-09-28T08:59:40.828Z,13.44
2022-09-28T09:00:41.895Z,13.44
2022-09-28T09:01:40.846Z,13.43
2022-09-28T09:02:40.898Z,13.41
2022-09-28T09:03:40.758Z,13.43
2022-09-28T09:04:40.932Z,13.47
2022-09-28T09:05:40.775Z,13.53
2022-09-28T09:06:40.869Z,13.56
2022-09-28T09:07:40.741Z,13.58
2022-09-28T09:08:40.860Z,13.60
2022-09-28T09:09:40.679Z,13.61
2022-09-28T09:10:40.840Z,13.59
2022-09-28T09:11:40.671Z,13.60
2022-09-28T09:12:40.803Z,13.62
2022-09-28T09:13:40.628Z,13.64
2022-09-28T09:14:40.768Z,13.66
2022-09-28T09:15:40.619Z,13.69
2022-09-28T09:16:40.713Z,13.72
2022-09-28T09:17:40.578Z,13.77
2022-09-28T09:18:40.618Z,13.84
2022-09-28T09:19:40.566Z,13.94
2022-09-28T09:20:40.687Z,14.06
2022-09-28T09:21:40.542Z,14.19
2022-09-28T09:22:41.679Z,14.31
2022-09-28T09:23:40.498Z,14.40
2022-09-28T09:24:41.607Z,14.44
2022-09-28T09:25:40.467Z,14.47
2022-09-28T09:26:40.573Z,14.49
2022-09-28T09:27:40.449Z,14.50
2022-09-28T09:28:40.557Z,14.50
2022-09-28T09:29:40.418Z,14.49
2022-09-28T09:30:40.655Z,14.51
2022-09-28T09:31:40.389Z,14.56
2022-09-28T09:32:40.486Z,14.64
2022-09-28T09:33:40.358Z,14.73
2022-09-28T09:34:40.460Z,14.83
2022-09-28T09:35:40.329Z,14.92
2022-09-28T09:36:41.267Z,14.94
2022-09-28T09:37:40.307Z,14.95
2022-09-28T09:38:40.488Z,14.96
2022-09-28T09:39:40.296Z,14.96
2022-09-28T09:40:41.443Z,14.94
2022-09-28T09:41:40.258Z,14.94
2022-09-28T09:42:40.306Z,14.96
2022-09-28T09:43:40.230Z,15.02
2022-09-28T09:44:40.388Z,15.09
2022-09-28T09:45:40.239Z,15.16
2022-09-28T09:46:40.273Z,15.20
2022-09-28T09:47:40.194Z,15.23
2022-09-28T09:48:40.221Z,15.24
2022-09-28T09:49:40.148Z,15.24
2022-09-28T09:50:40.298Z,15.24
2022-09-28T09:51:40.120Z,15.25
2022-09-28T09:52:43.778Z,15.28
2022-09-28T09:53:40.099Z,15.34
2022-09-28T09:54:40.208Z,15.40
2022-09-28T09:55:40.069Z,15.45
2022-09-28T09:56:41.218Z,15.49
2022-09-28T09:57:40.047Z,15.55
2022-09-28T09:58:40.189Z,15.58
2022-09-28T09:59:40.048Z,15.57
2022-09-28T10:00:40.121Z,15.58
2022-09-28T10:01:40.071Z,15.60
2022-09-28T10:02:42.147Z,15.60
2022-09-28T10:03:39.960Z,15.62
2022-09-28T10:04:40.089Z,15.64
2022-09-28T10:05:39.939Z,15.65
2022-09-28T10:06:40.032Z,15.67
2022-09-28T10:07:43.296Z,15.64
2022-09-28T10:08:39.920Z,15.61
2022-09-28T10:09:40.027Z,15.61
2022-09-28T10:10:39.869Z,15.65
2022-09-28T10:11:40.061Z,15.69
2022-09-28T10:12:39.847Z,15.74
2022-09-28T10:13:42.091Z,15.80
2022-09-28T10:14:39.840Z,15.84
2022-09-28T10:15:39.931Z,15.90
2022-09-28T10:16:39.854Z,15.96
2022-09-28T10:17:39.810Z,16.02
2022-09-28T10:18:39.769Z,16.09
2022-09-28T10:19:39.905Z,16.17
2022-09-28T10:20:39.761Z,16.24
2022-09-28T10:21:39.841Z,16.27
2022-09-28T10:22:39.710Z,16.30
2022-09-28T10:23:39.772Z,16.33
2022-09-28T10:24:39.690Z,16.35
2022-09-28T10:26:00.744Z,16.36
2022-09-28T10:26:39.663Z,16.37
2022-09-28T10:27:39.743Z,16.40
2022-09-28T10:28:39.631Z,16.45
2022-09-28T10:29:39.822Z,16.48
2022-09-28T10:30:39.658Z,16.52
2022-09-28T10:31:40.825Z,16.57
2022-09-28T10:32:39.629Z,16.62
2022-09-28T10:33:39.651Z,16.65
2022-09-28T10:34:39.552Z,16.60
2022-09-28T10:35:39.689Z,16.56
2022-09-28T10:36:39.522Z,16.54
2022-09-28T10:37:39.672Z,16.56
2022-09-28T10:38:39.502Z,16.59
2022-09-28T10:39:40.682Z,16.62
2022-09-28T10:40:39.597Z,16.65
2022-09-28T10:42:00.573Z,16.66
2022-09-28T10:42:39.442Z,16.64
2022-09-28T10:43:46.515Z,16.65
2022-09-28T10:44:40.423Z,16.69
2022-09-28T10:45:39.623Z,16.74
2022-09-28T10:46:39.393Z,16.74
2022-09-28T10:47:39.423Z,16.75
2022-09-28T10:48:40.080Z,16.78
2022-09-28T10:49:44.362Z,16.87
2022-09-28T10:50:40.341Z,16.97
2022-09-28T10:51:39.362Z,17.04
2022-09-28T10:52:39.313Z,17.10
2022-09-28T10:53:39.414Z,17.15
2022-09-28T10:54:39.285Z,17.18
2022-09-28T10:55:39.393Z,17.22
2022-09-28T10:56:39.253Z,17.26
2022-09-28T10:57:39.293Z,17.30
2022-09-28T10:58:39.233Z,17.33
2022-09-28T10:59:39.413Z,17.33
2022-09-28T11:00:39.210Z,17.26
2022-09-28T11:01:39.338Z,17.20
2022-09-28T11:02:39.193Z,17.15
2022-09-28T11:03:39.281Z,17.09
2022-09-28T11:04:39.144Z,17.05
2022-09-28T11:05:39.314Z,17.03
2022-09-28T11:06:39.125Z,17.02
2022-09-28T11:07:39.305Z,16.98
2022-09-28T11:08:39.104Z,16.94
2022-09-28T11:09:39.184Z,16.89
2022-09-28T11:10:39.077Z,16.83
2022-09-28T11:12:01.145Z,16.74
2022-09-28T11:12:39.053Z,16.72
2022-09-28T11:13:39.213Z,16.70
2022-09-28T11:14:42.529Z,16.69
2022-09-28T11:15:39.005Z,16.65
2022-09-28T11:16:40.166Z,16.60
2022-09-28T11:17:38.984Z,16.60
2022-09-28T11:18:39.094Z,16.59
2022-09-28T11:19:38.976Z,16.57
2022-09-28T11:20:40.544Z,16.56
2022-09-28T11:21:38.934Z,16.54
2022-09-28T11:22:39.064Z,16.55
2022-09-28T11:23:38.907Z,16.57
2022-09-28T11:24:38.996Z,16.60
2022-09-28T11:25:38.914Z,16.64
2022-09-28T11:26:38.933Z,16.70
2022-09-28T11:27:38.850Z,16.76
2022-09-28T11:28:38.966Z,16.81
2022-09-28T11:29:38.834Z,16.85
2022-09-28T11:30:40.114Z,16.86
2022-09-28T11:31:38.825Z,16.84
2022-09-28T11:32:38.846Z,16.80
2022-09-28T11:33:38.799Z,16.76
2022-09-28T11:34:58.229Z,16.70
2022-09-28T11:35:39.746Z,16.63
2022-09-28T11:36:38.814Z,16.59
2022-09-28T11:37:38.755Z,16.61
2022-09-28T11:38:38.846Z,16.62
2022-09-28T11:39:38.687Z,16.64
2022-09-28T11:40:38.918Z,16.66
2022-09-28T11:41:38.672Z,16.66
2022-09-28T11:42:40.814Z,16.67
2022-09-28T11:43:38.667Z,16.66
2022-09-28T11:44:38.748Z,16.63
2022-09-28T11:45:38.683Z,16.58
2022-09-28T11:46:38.688Z,16.54
2022-09-28T11:47:38.589Z,16.48
2022-09-28T11:48:38.724Z,16.45
2022-09-28T11:49:38.577Z,16.41
2022-09-28T11:50:38.656Z,16.38
2022-09-28T11:51:38.537Z,16.35
2022-09-28T11:52:38.595Z,16.29
2022-09-28T11:53:38.512Z,16.23
2022-09-28T11:54:38.628Z,16.24
2022-09-28T11:55:38.496Z,16.26
2022-09-28T11:56:38.568Z,16.29
2022-09-28T11:57:38.460Z,16.30
2022-09-28T11:58:59.578Z,16.31
2022-09-28T11:59:38.429Z,16.34
2022-09-28T12:00:39.914Z,16.36
2022-09-28T12:01:39.252Z,16.40
2022-09-28T12:02:39.085Z,16.45
2022-09-28T12:03:38.543Z,16.52
2022-09-28T12:04:38.506Z,16.59
2022-09-28T12:05:38.428Z,16.67
2022-09-28T12:06:38.440Z,16.75
2022-09-28T12:07:38.328Z,16.86
2022-09-28T12:08:38.478Z,16.98
2022-09-28T12:09:38.299Z,17.07
2022-09-28T12:10:43.339Z,17.13
2022-09-28T12:11:39.269Z,17.14
2022-09-28T12:12:38.343Z,17.15
2022-09-28T12:13:38.260Z,17.15
2022-09-28T12:14:38.386Z,17.11
2022-09-28T12:15:59.223Z,17.09
2022-09-28T12:17:04.282Z,17.08
2022-09-28T12:17:39.450Z,17.11
2022-09-28T12:18:38.181Z,17.16
2022-09-28T12:19:38.379Z,17.20
2022-09-28T12:20:38.154Z,17.21
2022-09-28T12:21:38.261Z,17.24
2022-09-28T12:22:38.128Z,17.26
2022-09-28T12:23:38.191Z,17.25
2022-09-28T12:24:38.094Z,17.21
2022-09-28T12:25:38.181Z,17.19
2022-09-28T12:26:38.170Z,17.16
2022-09-28T12:27:39.191Z,17.14
2022-09-28T12:28:38.041Z,17.16
2022-09-28T12:29:38.209Z,17.18
2022-09-28T12:30:38.098Z,17.22
2022-09-28T12:31:38.195Z,17.21
2022-09-28T12:32:37.991Z,17.20
2022-09-28T12:33:40.170Z,17.16
2022-09-28T12:34:37.971Z,17.15
2022-09-28T12:35:38.110Z,17.15
2022-09-28T12:36:37.942Z,17.16
2022-09-28T12:37:38.092Z,17.18
2022-09-28T12:38:37.913Z,17.19
2022-09-28T12:39:56.436Z,17.20
2022-09-28T12:40:39.044Z,17.20
2022-09-28T12:41:37.875Z,17.20
2022-09-28T12:42:37.972Z,17.21
2022-09-28T12:43:37.872Z,17.22
2022-09-28T12:44:38.012Z,17.24
2022-09-28T12:45:53.226Z,17.26
2022-09-28T12:46:38.837Z,17.30
2022-09-28T12:47:37.913Z,17.32
2022-09-28T12:48:37.781Z,17.34
2022-09-28T12:50:59.950Z,17.37
2022-09-28T12:51:37.742Z,17.37
2022-09-28T12:52:37.883Z,17.37
2022-09-28T12:53:37.714Z,17.38
2022-09-28T12:54:37.892Z,17.40
2022-09-28T12:55:37.712Z,17.41
2022-09-28T12:56:37.723Z,17.42
2022-09-28T12:57:37.676Z,17.44
2022-09-28T12:58:37.763Z,17.47
2022-09-28T12:59:37.634Z,17.52
2022-09-28T13:00:37.803Z,17.56
2022-09-28T13:01:37.681Z,17.61
2022-09-28T13:02:37.884Z,17.67
2022-09-28T13:03:37.593Z,17.73
2022-09-28T13:04:37.664Z,17.77
2022-09-28T13:05:37.564Z,17.79
2022-09-28T13:06:37.602Z,17.77
2022-09-28T13:07:37.555Z,17.76
2022-09-28T13:08:37.728Z,17.74
2022-09-28T13:09:37.495Z,17.72